Green Valley, IL (61534)

8:58 PM CDT on August 29, 2014 (GMT -0500)
Green Acres | Change Station
CLOSE
Current Station
Personal Weather Station
Location: Green Valley, IL
Elevation: 516 ft
Nearby Weather Stations

Elev 516 ft 40.48 °N, 89.66 °W | Updated 6 minutes ago

Thunderstorm
Thunderstorm
71.6 °F
Feels Like 71.6 °F
N
2.0
Wind Variable Wind from WSW
Gusts 2.0 mph

Today
High -- | Low -- °F
--% Chance of Precip.
Yesterday
High -- | Low -- °F
Precip. -- in
6:23 AM 7:35 PM
Waxing Crescent, 18% visible
Pressure 29.87 in
Visibility 4.0 miles
Clouds Scattered Clouds 4000 ft
Mostly Cloudy 5500 ft
Overcast 10000 ft
Dew Point 69 °F
Humidity 92%
Rainfall 0.51 in
Snow Depth Not available.
UV 0 out of 12
Pollen 8.40 out of 12
Ozone Good
PM2.5 Good
Flu Activity Not available.
METAR KPIA 300152Z 28006KT 4SM VCTS RA BR SCT040 BKN055 OVC100 22/19 A2988 RMK AO2 PK WND 26030/0131 WSHFT 0118 LTG DSNT S-W RAB30 SLP114 P0014 T02170194

More Conditions Fewer Conditions

Pressure 29.87 in
Visibility 4.0 miles
Clouds Scattered Clouds 4000 ft
Mostly Cloudy 5500 ft
Overcast 10000 ft
Dew Point 69 °F
Humidity 92%
Rainfall 0.51 in
Snow Depth Not available.
UV 0 out of 12
Pollen 8.40 out of 12
Ozone Good
PM2.5 Good
Flu Activity Not available.
METAR KPIA 300152Z 28006KT 4SM VCTS RA BR SCT040 BKN055 OVC100 22/19 A2988 RMK AO2 PK WND 26030/0131 WSHFT 0118 LTG DSNT S-W RAB30 SLP114 P0014 T02170194

More Conditions Fewer Conditions

10-Day Weather Forecast

Almanac

Astronomy

Aug. 29, 2014 Rise Set
Actual Time 6:23 AM CDT 7:35 PM CDT
Civil Twilight 5:54 AM CDT 8:03 PM CDT
Nautical Twilight 5:21 AM CDT 8:36 PM CDT
Astronomical Twilight 4:45 AM CDT 9:12 PM CDT
Moon 10:13 AM CDT (8/29) 9:31 PM CDT (8/29)
Length of Visible Light 14h 08m
Length of Day
13h 12m
Tomorrow will be 2m 33s shorter.
Waxing Crescent, 18% of the Moon is Illuminated
Today
Waxing Crescent
Sep 2
First Quarter
Sep 8
Full
Sep 15
Last Quarter
Sep 24
New

Today's Extremes

State Highs State Lows

Community

WunderPhotos

Upload Photos

1,748,403 photos uploaded!

Nearby

Air Quality

  Air Quality AQ Index Pollutant
Yesterday Good
OZONE
Yesterday Good
PM2.5
Current Good
OZONE
Current Good
PM2.5
Friday Good
PM2.5
Saturday Good
PM2.5
Sunday Good
PM2.5
Monday Moderate
PM2.5
Tuesday Good
PM2.5

Snow Depth

Station Depth Elevation
No new snow has been reported.

Earthquake Activity

City Distance Mag. Time & Date
No recent earthquake activity has been reported nearby.
Minimum magnitude displayed is 2.5.

Coastal Water Temperatures

Place Temperature
No Stations Reporting

Nearby Weather Stations